sensor_id;sensor_type;location;lat;lon;timestamp;P1;durP1;ratioP1;P2;durP2;ratioP2
26277;SDS011;14000;52.056;8.510;2022-11-20T00:00:50;42.10;;;21.98;;
26277;SDS011;14000;52.056;8.510;2022-11-20T00:03:16;43.13;;;22.27;;
26277;SDS011;14000;52.056;8.510;2022-11-20T00:05:42;40.93;;;21.80;;
26277;SDS011;14000;52.056;8.510;2022-11-20T00:08:08;40.60;;;22.05;;
26277;SDS011;14000;52.056;8.510;2022-11-20T00:10:37;38.97;;;20.73;;
26277;SDS011;14000;52.056;8.510;2022-11-20T00:13:03;38.67;;;20.73;;
26277;SDS011;14000;52.056;8.510;2022-11-20T00:15:29;37.23;;;20.57;;
26277;SDS011;14000;52.056;8.510;2022-11-20T00:17:54;41.87;;;21.27;;
26277;SDS011;14000;52.056;8.510;2022-11-20T00:20:20;39.33;;;20.73;;
26277;SDS011;14000;52.056;8.510;2022-11-20T00:22:46;40.13;;;21.10;;
26277;SDS011;14000;52.056;8.510;2022-11-20T00:25:11;42.10;;;21.53;;
26277;SDS011;14000;52.056;8.510;2022-11-20T00:27:37;37.27;;;20.83;;
26277;SDS011;14000;52.056;8.510;2022-11-20T00:30:03;40.03;;;20.73;;
26277;SDS011;14000;52.056;8.510;2022-11-20T00:32:29;44.25;;;21.10;;
26277;SDS011;14000;52.056;8.510;2022-11-20T00:34:55;42.77;;;22.67;;
26277;SDS011;14000;52.056;8.510;2022-11-20T00:37:20;41.57;;;21.10;;
26277;SDS011;14000;52.056;8.510;2022-11-20T00:39:46;41.70;;;20.77;;
26277;SDS011;14000;52.056;8.510;2022-11-20T00:42:12;40.20;;;20.80;;
26277;SDS011;14000;52.056;8.510;2022-11-20T00:44:37;41.33;;;21.47;;
26277;SDS011;14000;52.056;8.510;2022-11-20T00:47:03;39.43;;;21.37;;
26277;SDS011;14000;52.056;8.510;2022-11-20T00:49:28;40.27;;;21.27;;
26277;SDS011;14000;52.056;8.510;2022-11-20T00:51:54;38.27;;;20.47;;
26277;SDS011;14000;52.056;8.510;2022-11-20T00:54:20;38.53;;;20.40;;
26277;SDS011;14000;52.056;8.510;2022-11-20T00:56:45;39.27;;;20.10;;
26277;SDS011;14000;52.056;8.510;2022-11-20T00:59:11;40.57;;;21.53;;
26277;SDS011;14000;52.056;8.510;2022-11-20T01:01:37;42.30;;;20.70;;
26277;SDS011;14000;52.056;8.510;2022-11-20T01:04:03;40.35;;;22.20;;
26277;SDS011;14000;52.056;8.510;2022-11-20T01:06:33;35.73;;;19.57;;
26277;SDS011;14000;52.056;8.510;2022-11-20T01:09:05;36.22;;;19.38;;
26277;SDS011;14000;52.056;8.510;2022-11-20T01:11:34;37.60;;;20.17;;
26277;SDS011;14000;52.056;8.510;2022-11-20T01:14:02;37.85;;;21.10;;
26277;SDS011;14000;52.056;8.510;2022-11-20T01:16:35;40.38;;;21.83;;
26277;SDS011;14000;52.056;8.510;2022-11-20T01:19:03;37.60;;;18.92;;
26277;SDS011;14000;52.056;8.510;2022-11-20T01:21:31;37.58;;;19.85;;
26277;SDS011;14000;52.056;8.510;2022-11-20T01:24:02;38.78;;;20.48;;
26277;SDS011;14000;52.056;8.510;2022-11-20T01:26:30;38.70;;;19.67;;
26277;SDS011;14000;52.056;8.510;2022-11-20T01:28:57;38.10;;;19.65;;
26277;SDS011;14000;52.056;8.510;2022-11-20T01:31:30;41.40;;;19.27;;
26277;SDS011;14000;52.056;8.510;2022-11-20T01:33:59;38.78;;;19.02;;
26277;SDS011;14000;52.056;8.510;2022-11-20T01:36:28;37.50;;;19.02;;
26277;SDS011;14000;52.056;8.510;2022-11-20T01:38:55;41.05;;;20.15;;
26277;SDS011;14000;52.056;8.510;2022-11-20T01:41:22;41.00;;;19.77;;
26277;SDS011;14000;52.056;8.510;2022-11-20T01:44:22;37.30;;;18.88;;
26277;SDS011;14000;52.056;8.510;2022-11-20T01:50:26;37.42;;;19.30;;
26277;SDS011;14000;52.056;8.510;2022-11-20T01:52:58;36.67;;;18.88;;
26277;SDS011;14000;52.056;8.510;2022-11-20T01:55:34;37.45;;;19.52;;
26277;SDS011;14000;52.056;8.510;2022-11-20T01:58:04;42.63;;;21.65;;
26277;SDS011;14000;52.056;8.510;2022-11-20T02:00:30;48.65;;;23.20;;
26277;SDS011;14000;52.056;8.510;2022-11-20T02:02:57;44.13;;;21.08;;
26277;SDS011;14000;52.056;8.510;2022-11-20T02:07:54;40.15;;;21.05;;
26277;SDS011;14000;52.056;8.510;2022-11-20T02:10:22;39.92;;;20.73;;
26277;SDS011;14000;52.056;8.510;2022-11-20T02:12:48;43.30;;;20.77;;
26277;SDS011;14000;52.056;8.510;2022-11-20T02:15:32;38.90;;;20.45;;
26277;SDS011;14000;52.056;8.510;2022-11-20T02:17:58;40.80;;;20.33;;
26277;SDS011;14000;52.056;8.510;2022-11-20T02:20:24;41.03;;;21.10;;
26277;SDS011;14000;52.056;8.510;2022-11-20T02:22:52;43.08;;;20.85;;
26277;SDS011;14000;52.056;8.510;2022-11-20T02:25:23;39.10;;;19.52;;
26277;SDS011;14000;52.056;8.510;2022-11-20T02:27:51;39.78;;;20.42;;
26277;SDS011;14000;52.056;8.510;2022-11-20T02:30:17;42.53;;;20.17;;
26277;SDS011;14000;52.056;8.510;2022-11-20T02:32:43;40.43;;;19.53;;
26277;SDS011;14000;52.056;8.510;2022-11-20T02:37:54;39.58;;;20.10;;
26277;SDS011;14000;52.056;8.510;2022-11-20T02:40:22;40.28;;;19.60;;
26277;SDS011;14000;52.056;8.510;2022-11-20T02:42:51;39.27;;;19.40;;
26277;SDS011;14000;52.056;8.510;2022-11-20T02:45:17;41.15;;;20.75;;
26277;SDS011;14000;52.056;8.510;2022-11-20T02:47:44;43.22;;;20.33;;
26277;SDS011;14000;52.056;8.510;2022-11-20T02:50:10;40.20;;;20.37;;
26277;SDS011;14000;52.056;8.510;2022-11-20T02:52:35;39.23;;;19.63;;
26277;SDS011;14000;52.056;8.510;2022-11-20T02:55:01;41.67;;;19.90;;
26277;SDS011;14000;52.056;8.510;2022-11-20T02:57:27;40.73;;;20.33;;
26277;SDS011;14000;52.056;8.510;2022-11-20T02:59:53;41.87;;;19.93;;
26277;SDS011;14000;52.056;8.510;2022-11-20T03:02:18;40.23;;;20.33;;
26277;SDS011;14000;52.056;8.510;2022-11-20T03:04:45;38.40;;;19.77;;
26277;SDS011;14000;52.056;8.510;2022-11-20T03:07:11;42.17;;;21.10;;
26277;SDS011;14000;52.056;8.510;2022-11-20T03:09:36;42.20;;;19.30;;
26277;SDS011;14000;52.056;8.510;2022-11-20T03:12:02;38.27;;;19.63;;
26277;SDS011;14000;52.056;8.510;2022-11-20T03:14:27;39.03;;;18.53;;
26277;SDS011;14000;52.056;8.510;2022-11-20T03:16:53;39.93;;;19.80;;
26277;SDS011;14000;52.056;8.510;2022-11-20T03:19:20;36.97;;;19.42;;
26277;SDS011;14000;52.056;8.510;2022-11-20T03:21:45;40.30;;;20.57;;
26277;SDS011;14000;52.056;8.510;2022-11-20T03:24:11;39.03;;;19.87;;
26277;SDS011;14000;52.056;8.510;2022-11-20T03:26:38;42.25;;;21.10;;
26277;SDS011;14000;52.056;8.510;2022-11-20T03:29:04;37.00;;;19.70;;
26277;SDS011;14000;52.056;8.510;2022-11-20T03:31:32;37.65;;;19.15;;
26277;SDS011;14000;52.056;8.510;2022-11-20T03:34:00;38.17;;;19.75;;
26277;SDS011;14000;52.056;8.510;2022-11-20T03:36:26;40.83;;;18.43;;
26277;SDS011;14000;52.056;8.510;2022-11-20T03:38:55;41.33;;;18.73;;
26277;SDS011;14000;52.056;8.510;2022-11-20T03:41:25;37.03;;;19.20;;
26277;SDS011;14000;52.056;8.510;2022-11-20T03:43:53;37.28;;;19.83;;
26277;SDS011;14000;52.056;8.510;2022-11-20T03:46:21;39.17;;;19.20;;
26277;SDS011;14000;52.056;8.510;2022-11-20T03:48:46;38.00;;;18.90;;
26277;SDS011;14000;52.056;8.510;2022-11-20T03:51:16;35.23;;;18.23;;
26277;SDS011;14000;52.056;8.510;2022-11-20T03:53:46;37.20;;;18.80;;
26277;SDS011;14000;52.056;8.510;2022-11-20T03:56:13;35.28;;;17.88;;
26277;SDS011;14000;52.056;8.510;2022-11-20T03:58:41;35.58;;;18.33;;
26277;SDS011;14000;52.056;8.510;2022-11-20T04:01:15;38.60;;;19.73;;
26277;SDS011;14000;52.056;8.510;2022-11-20T04:03:42;35.65;;;18.00;;
26277;SDS011;14000;52.056;8.510;2022-11-20T04:06:10;36.50;;;19.00;;
26277;SDS011;14000;52.056;8.510;2022-11-20T04:08:38;36.85;;;18.27;;
26277;SDS011;14000;52.056;8.510;2022-11-20T04:11:14;39.22;;;20.23;;
26277;SDS011;14000;52.056;8.510;2022-11-20T04:13:41;35.72;;;18.92;;
26277;SDS011;14000;52.056;8.510;2022-11-20T04:16:10;37.30;;;19.38;;
26277;SDS011;14000;52.056;8.510;2022-11-20T04:18:36;38.63;;;19.70;;
26277;SDS011;14000;52.056;8.510;2022-11-20T04:21:02;42.27;;;18.47;;
26277;SDS011;14000;52.056;8.510;2022-11-20T04:23:28;37.72;;;18.92;;
26277;SDS011;14000;52.056;8.510;2022-11-20T04:25:54;41.23;;;19.63;;
26277;SDS011;14000;52.056;8.510;2022-11-20T04:28:25;35.80;;;18.83;;
26277;SDS011;14000;52.056;8.510;2022-11-20T04:30:50;36.60;;;18.70;;
26277;SDS011;14000;52.056;8.510;2022-11-20T04:33:16;37.73;;;19.57;;
26277;SDS011;14000;52.056;8.510;2022-11-20T04:35:48;36.60;;;19.37;;
26277;SDS011;14000;52.056;8.510;2022-11-20T04:38:14;37.60;;;18.85;;
26277;SDS011;14000;52.056;8.510;2022-11-20T04:40:39;38.93;;;19.40;;
26277;SDS011;14000;52.056;8.510;2022-11-20T04:43:05;37.00;;;20.00;;
26277;SDS011;14000;52.056;8.510;2022-11-20T04:45:30;35.60;;;18.93;;
26277;SDS011;14000;52.056;8.510;2022-11-20T04:47:56;37.60;;;19.77;;
26277;SDS011;14000;52.056;8.510;2022-11-20T04:50:21;34.77;;;18.30;;
26277;SDS011;14000;52.056;8.510;2022-11-20T04:52:47;37.43;;;19.10;;
26277;SDS011;14000;52.056;8.510;2022-11-20T04:55:12;35.13;;;18.77;;
26277;SDS011;14000;52.056;8.510;2022-11-20T04:57:38;41.13;;;19.93;;
26277;SDS011;14000;52.056;8.510;2022-11-20T05:00:04;36.13;;;18.40;;
26277;SDS011;14000;52.056;8.510;2022-11-20T05:02:30;39.15;;;18.83;;
26277;SDS011;14000;52.056;8.510;2022-11-20T05:04:56;35.83;;;18.63;;
26277;SDS011;14000;52.056;8.510;2022-11-20T05:07:22;37.97;;;19.67;;
26277;SDS011;14000;52.056;8.510;2022-11-20T05:09:47;35.33;;;18.70;;
26277;SDS011;14000;52.056;8.510;2022-11-20T05:12:13;38.57;;;18.63;;
26277;SDS011;14000;52.056;8.510;2022-11-20T05:14:38;35.17;;;18.80;;
26277;SDS011;14000;52.056;8.510;2022-11-20T05:17:04;39.17;;;19.67;;
26277;SDS011;14000;52.056;8.510;2022-11-20T05:19:29;36.83;;;18.97;;
26277;SDS011;14000;52.056;8.510;2022-11-20T05:21:55;35.77;;;18.47;;
26277;SDS011;14000;52.056;8.510;2022-11-20T05:24:21;36.50;;;18.53;;
26277;SDS011;14000;52.056;8.510;2022-11-20T05:26:46;34.10;;;18.10;;
26277;SDS011;14000;52.056;8.510;2022-11-20T05:29:12;35.17;;;17.50;;
26277;SDS011;14000;52.056;8.510;2022-11-20T05:31:39;37.40;;;18.17;;
26277;SDS011;14000;52.056;8.510;2022-11-20T05:34:05;35.08;;;17.85;;
26277;SDS011;14000;52.056;8.510;2022-11-20T05:36:31;36.07;;;18.83;;
26277;SDS011;14000;52.056;8.510;2022-11-20T05:38:57;37.20;;;19.33;;
26277;SDS011;14000;52.056;8.510;2022-11-20T05:41:22;35.33;;;18.87;;
26277;SDS011;14000;52.056;8.510;2022-11-20T05:43:49;34.97;;;18.60;;
26277;SDS011;14000;52.056;8.510;2022-11-20T05:46:16;36.55;;;18.60;;
26277;SDS011;14000;52.056;8.510;2022-11-20T05:48:43;36.05;;;17.65;;
26277;SDS011;14000;52.056;8.510;2022-11-20T05:51:11;38.30;;;19.23;;
26277;SDS011;14000;52.056;8.510;2022-11-20T05:53:42;36.78;;;18.80;;
26277;SDS011;14000;52.056;8.510;2022-11-20T05:56:09;40.27;;;19.43;;
26277;SDS011;14000;52.056;8.510;2022-11-20T05:58:37;37.05;;;19.52;;
26277;SDS011;14000;52.056;8.510;2022-11-20T06:01:11;38.37;;;18.80;;
26277;SDS011;14000;52.056;8.510;2022-11-20T06:03:37;38.28;;;18.95;;
26277;SDS011;14000;52.056;8.510;2022-11-20T06:06:03;35.80;;;19.23;;
26277;SDS011;14000;52.056;8.510;2022-11-20T06:08:30;34.95;;;18.75;;
26277;SDS011;14000;52.056;8.510;2022-11-20T06:10:56;37.60;;;19.43;;
26277;SDS011;14000;52.056;8.510;2022-11-20T06:13:21;35.47;;;18.90;;
26277;SDS011;14000;52.056;8.510;2022-11-20T06:15:48;36.27;;;18.40;;
26277;SDS011;14000;52.056;8.510;2022-11-20T06:18:17;38.10;;;20.02;;
26277;SDS011;14000;52.056;8.510;2022-11-20T06:20:43;38.50;;;19.63;;
26277;SDS011;14000;52.056;8.510;2022-11-20T06:23:09;41.60;;;20.88;;
26277;SDS011;14000;52.056;8.510;2022-11-20T06:25:39;38.47;;;19.57;;
26277;SDS011;14000;52.056;8.510;2022-11-20T06:28:05;36.92;;;19.05;;
26277;SDS011;14000;52.056;8.510;2022-11-20T06:30:31;42.10;;;21.10;;
26277;SDS011;14000;52.056;8.510;2022-11-20T06:32:56;38.38;;;19.85;;
26277;SDS011;14000;52.056;8.510;2022-11-20T06:35:22;36.07;;;20.17;;
26277;SDS011;14000;52.056;8.510;2022-11-20T06:37:48;38.90;;;20.27;;
26277;SDS011;14000;52.056;8.510;2022-11-20T06:40:13;39.23;;;20.10;;
26277;SDS011;14000;52.056;8.510;2022-11-20T06:42:39;38.60;;;19.97;;
26277;SDS011;14000;52.056;8.510;2022-11-20T06:45:04;37.90;;;21.47;;
26277;SDS011;14000;52.056;8.510;2022-11-20T06:47:30;36.00;;;19.33;;
26277;SDS011;14000;52.056;8.510;2022-11-20T06:49:56;39.33;;;20.00;;
26277;SDS011;14000;52.056;8.510;2022-11-20T06:52:22;37.13;;;19.40;;
26277;SDS011;14000;52.056;8.510;2022-11-20T06:54:47;40.17;;;19.57;;
26277;SDS011;14000;52.056;8.510;2022-11-20T06:57:13;39.10;;;20.50;;
26277;SDS011;14000;52.056;8.510;2022-11-20T06:59:38;39.03;;;19.90;;
26277;SDS011;14000;52.056;8.510;2022-11-20T07:02:04;38.97;;;19.40;;
26277;SDS011;14000;52.056;8.510;2022-11-20T07:04:30;35.20;;;18.53;;
26277;SDS011;14000;52.056;8.510;2022-11-20T07:06:55;37.70;;;19.30;;
26277;SDS011;14000;52.056;8.510;2022-11-20T07:09:21;37.67;;;18.53;;
26277;SDS011;14000;52.056;8.510;2022-11-20T07:11:46;38.13;;;18.53;;
26277;SDS011;14000;52.056;8.510;2022-11-20T07:14:12;37.07;;;19.00;;
26277;SDS011;14000;52.056;8.510;2022-11-20T07:16:37;38.30;;;19.37;;
26277;SDS011;14000;52.056;8.510;2022-11-20T07:19:03;35.80;;;19.27;;
26277;SDS011;14000;52.056;8.510;2022-11-20T07:21:28;40.37;;;20.73;;
26277;SDS011;14000;52.056;8.510;2022-11-20T07:23:54;42.97;;;20.83;;
26277;SDS011;14000;52.056;8.510;2022-11-20T07:26:20;43.30;;;22.00;;
26277;SDS011;14000;52.056;8.510;2022-11-20T07:28:45;36.43;;;19.53;;
26277;SDS011;14000;52.056;8.510;2022-11-20T07:31:11;40.43;;;20.27;;
26277;SDS011;14000;52.056;8.510;2022-11-20T07:33:37;38.05;;;20.52;;
26277;SDS011;14000;52.056;8.510;2022-11-20T07:36:03;37.53;;;21.63;;
26277;SDS011;14000;52.056;8.510;2022-11-20T07:38:29;42.00;;;22.20;;
26277;SDS011;14000;52.056;8.510;2022-11-20T07:40:56;41.90;;;21.73;;
26277;SDS011;14000;52.056;8.510;2022-11-20T07:43:22;42.03;;;23.88;;
26277;SDS011;14000;52.056;8.510;2022-11-20T07:45:48;40.95;;;23.15;;
26277;SDS011;14000;52.056;8.510;2022-11-20T07:48:14;43.70;;;23.53;;
26277;SDS011;14000;52.056;8.510;2022-11-20T07:50:40;38.37;;;20.37;;
26277;SDS011;14000;52.056;8.510;2022-11-20T07:53:05;40.60;;;22.57;;
26277;SDS011;14000;52.056;8.510;2022-11-20T07:55:31;45.20;;;24.77;;
26277;SDS011;14000;52.056;8.510;2022-11-20T07:57:57;42.73;;;23.07;;
26277;SDS011;14000;52.056;8.510;2022-11-20T08:00:23;45.85;;;23.58;;
26277;SDS011;14000;52.056;8.510;2022-11-20T08:02:50;45.47;;;24.50;;
26277;SDS011;14000;52.056;8.510;2022-11-20T08:05:15;48.03;;;25.13;;
26277;SDS011;14000;52.056;8.510;2022-11-20T08:07:42;49.33;;;25.20;;
26277;SDS011;14000;52.056;8.510;2022-11-20T08:10:09;50.40;;;27.35;;
26277;SDS011;14000;52.056;8.510;2022-11-20T08:12:36;47.85;;;25.60;;
26277;SDS011;14000;52.056;8.510;2022-11-20T08:15:27;51.58;;;26.08;;
26277;SDS011;14000;52.056;8.510;2022-11-20T08:17:58;52.40;;;25.13;;
26277;SDS011;14000;52.056;8.510;2022-11-20T08:20:24;52.03;;;26.65;;
26277;SDS011;14000;52.056;8.510;2022-11-20T08:22:50;54.80;;;26.73;;
26277;SDS011;14000;52.056;8.510;2022-11-20T08:25:16;57.67;;;28.83;;
26277;SDS011;14000;52.056;8.510;2022-11-20T08:27:41;57.17;;;27.77;;
26277;SDS011;14000;52.056;8.510;2022-11-20T08:30:07;50.13;;;25.43;;
26277;SDS011;14000;52.056;8.510;2022-11-20T08:32:36;63.30;;;29.70;;
26277;SDS011;14000;52.056;8.510;2022-11-20T08:35:11;76.03;;;33.65;;
26277;SDS011;14000;52.056;8.510;2022-11-20T08:37:39;64.57;;;30.77;;
26277;SDS011;14000;52.056;8.510;2022-11-20T08:40:06;69.55;;;31.75;;
26277;SDS011;14000;52.056;8.510;2022-11-20T08:42:35;63.17;;;30.75;;
26277;SDS011;14000;52.056;8.510;2022-11-20T10:53:27;22.80;;;11.30;;
26277;SDS011;14000;52.056;8.510;2022-11-20T10:56:05;22.00;;;11.50;;
26277;SDS011;14000;52.056;8.510;2022-11-20T11:01:55;22.97;;;11.60;;
26277;SDS011;14000;52.056;8.510;2022-11-20T11:04:29;23.03;;;11.70;;
26277;SDS011;14000;52.056;8.510;2022-11-20T11:07:12;23.27;;;11.67;;
26277;SDS011;14000;52.056;8.510;2022-11-20T11:09:43;24.47;;;11.97;;
26277;SDS011;14000;52.056;8.510;2022-11-20T11:12:12;25.43;;;13.03;;
26277;SDS011;14000;52.056;8.510;2022-11-20T11:14:43;21.23;;;11.17;;
26277;SDS011;14000;52.056;8.510;2022-11-20T11:17:23;19.83;;;10.27;;
26277;SDS011;14000;52.056;8.510;2022-11-20T11:22:52;17.90;;;8.50;;
26277;SDS011;14000;52.056;8.510;2022-11-20T11:27:59;12.87;;;6.80;;
26277;SDS011;14000;52.056;8.510;2022-11-20T11:30:30;14.47;;;7.50;;
26277;SDS011;14000;52.056;8.510;2022-11-20T11:33:06;13.73;;;7.40;;
26277;SDS011;14000;52.056;8.510;2022-11-20T11:35:39;15.07;;;7.33;;
26277;SDS011;14000;52.056;8.510;2022-11-20T11:38:43;13.77;;;7.67;;
26277;SDS011;14000;52.056;8.510;2022-11-20T11:41:13;13.70;;;6.80;;
26277;SDS011;14000;52.056;8.510;2022-11-20T11:43:53;13.10;;;7.40;;
26277;SDS011;14000;52.056;8.510;2022-11-20T11:46:40;13.83;;;7.70;;
26277;SDS011;14000;52.056;8.510;2022-11-20T11:49:16;13.13;;;7.37;;
26277;SDS011;14000;52.056;8.510;2022-11-20T11:51:59;13.50;;;8.07;;
26277;SDS011;14000;52.056;8.510;2022-11-20T11:54:58;15.67;;;7.93;;
26277;SDS011;14000;52.056;8.510;2022-11-20T11:57:33;15.33;;;8.27;;
26277;SDS011;14000;52.056;8.510;2022-11-20T12:00:08;13.93;;;8.17;;
26277;SDS011;14000;52.056;8.510;2022-11-20T12:13:15;16.83;;;9.07;;
26277;SDS011;14000;52.056;8.510;2022-11-20T12:15:57;16.43;;;9.20;;
26277;SDS011;14000;52.056;8.510;2022-11-20T12:18:23;16.83;;;9.00;;
26277;SDS011;14000;52.056;8.510;2022-11-20T12:23:44;17.83;;;9.57;;
26277;SDS011;14000;52.056;8.510;2022-11-20T12:34:47;17.37;;;9.40;;
26277;SDS011;14000;52.056;8.510;2022-11-20T12:43:23;17.13;;;9.10;;
26277;SDS011;14000;52.056;8.510;2022-11-20T12:57:13;28.53;;;13.80;;
26277;SDS011;14000;52.056;8.510;2022-11-20T13:02:27;19.83;;;8.80;;
26277;SDS011;14000;52.056;8.510;2022-11-20T13:07:33;20.20;;;11.40;;
26277;SDS011;14000;52.056;8.510;2022-11-20T13:10:01;20.23;;;10.40;;
26277;SDS011;14000;52.056;8.510;2022-11-20T13:12:30;16.70;;;8.87;;
26277;SDS011;14000;52.056;8.510;2022-11-20T13:15:17;17.30;;;9.13;;
26277;SDS011;14000;52.056;8.510;2022-11-20T13:20:26;23.87;;;12.87;;
26277;SDS011;14000;52.056;8.510;2022-11-20T13:22:53;17.43;;;9.40;;
26277;SDS011;14000;52.056;8.510;2022-11-20T13:25:29;19.20;;;8.97;;
26277;SDS011;14000;52.056;8.510;2022-11-20T13:28:45;18.47;;;9.30;;
26277;SDS011;14000;52.056;8.510;2022-11-20T13:30:49;17.33;;;9.10;;
26277;SDS011;14000;52.056;8.510;2022-11-20T13:33:32;20.87;;;11.37;;
26277;SDS011;14000;52.056;8.510;2022-11-20T13:38:27;18.40;;;8.50;;
26277;SDS011;14000;52.056;8.510;2022-11-20T13:41:06;17.77;;;9.17;;
26277;SDS011;14000;52.056;8.510;2022-11-20T13:43:52;18.00;;;8.90;;
26277;SDS011;14000;52.056;8.510;2022-11-20T13:46:18;17.73;;;8.93;;
26277;SDS011;14000;52.056;8.510;2022-11-20T13:48:49;18.47;;;9.23;;
26277;SDS011;14000;52.056;8.510;2022-11-20T14:02:01;21.87;;;10.37;;
26277;SDS011;14000;52.056;8.510;2022-11-20T14:04:29;21.53;;;10.87;;
26277;SDS011;14000;52.056;8.510;2022-11-20T14:07:00;21.37;;;11.63;;
26277;SDS011;14000;52.056;8.510;2022-11-20T14:11:52;22.83;;;11.67;;
26277;SDS011;14000;52.056;8.510;2022-11-20T14:14:19;22.73;;;12.47;;
26277;SDS011;14000;52.056;8.510;2022-11-20T14:16:49;28.50;;;14.03;;
26277;SDS011;14000;52.056;8.510;2022-11-20T14:19:28;25.03;;;13.70;;
26277;SDS011;14000;52.056;8.510;2022-11-20T14:22:09;27.97;;;14.67;;
26277;SDS011;14000;52.056;8.510;2022-11-20T14:24:41;28.47;;;14.70;;
26277;SDS011;14000;52.056;8.510;2022-11-20T14:27:12;27.20;;;14.67;;
26277;SDS011;14000;52.056;8.510;2022-11-20T14:29:39;26.40;;;13.70;;
26277;SDS011;14000;52.056;8.510;2022-11-20T14:32:08;27.73;;;15.97;;
26277;SDS011;14000;52.056;8.510;2022-11-20T14:34:37;25.63;;;13.13;;
26277;SDS011;14000;52.056;8.510;2022-11-20T14:37:05;31.67;;;16.87;;
26277;SDS011;14000;52.056;8.510;2022-11-20T14:39:37;30.67;;;16.57;;
26277;SDS011;14000;52.056;8.510;2022-11-20T14:42:19;30.37;;;16.23;;
26277;SDS011;14000;52.056;8.510;2022-11-20T14:44:45;28.57;;;15.20;;
26277;SDS011;14000;52.056;8.510;2022-11-20T14:47:13;32.87;;;18.43;;
26277;SDS011;14000;52.056;8.510;2022-11-20T14:49:43;33.00;;;16.57;;
26277;SDS011;14000;52.056;8.510;2022-11-20T14:52:12;32.73;;;17.63;;
26277;SDS011;14000;52.056;8.510;2022-11-20T14:54:47;30.80;;;17.30;;
26277;SDS011;14000;52.056;8.510;2022-11-20T14:57:22;33.90;;;17.57;;
26277;SDS011;14000;52.056;8.510;2022-11-20T15:02:40;41.00;;;22.37;;
26277;SDS011;14000;52.056;8.510;2022-11-20T15:05:07;42.03;;;21.63;;
26277;SDS011;14000;52.056;8.510;2022-11-20T15:07:34;38.73;;;19.93;;
26277;SDS011;14000;52.056;8.510;2022-11-20T15:10:11;54.23;;;27.73;;
26277;SDS011;14000;52.056;8.510;2022-11-20T15:12:51;40.40;;;20.87;;
26277;SDS011;14000;52.056;8.510;2022-11-20T15:15:27;39.30;;;19.67;;
26277;SDS011;14000;52.056;8.510;2022-11-20T15:18:04;40.43;;;21.87;;
26277;SDS011;14000;52.056;8.510;2022-11-20T15:20:33;44.23;;;21.63;;
26277;SDS011;14000;52.056;8.510;2022-11-20T15:23:00;42.50;;;22.63;;
26277;SDS011;14000;52.056;8.510;2022-11-20T15:25:26;38.57;;;19.87;;
26277;SDS011;14000;52.056;8.510;2022-11-20T15:27:56;41.13;;;20.73;;
26277;SDS011;14000;52.056;8.510;2022-11-20T15:30:22;50.00;;;26.93;;
26277;SDS011;14000;52.056;8.510;2022-11-20T15:32:48;56.43;;;31.90;;
26277;SDS011;14000;52.056;8.510;2022-11-20T15:35:14;41.33;;;23.33;;
26277;SDS011;14000;52.056;8.510;2022-11-20T15:37:40;41.63;;;23.03;;
26277;SDS011;14000;52.056;8.510;2022-11-20T15:40:06;48.07;;;27.73;;
26277;SDS011;14000;52.056;8.510;2022-11-20T15:42:33;50.03;;;28.50;;
26277;SDS011;14000;52.056;8.510;2022-11-20T15:44:59;45.17;;;25.33;;
26277;SDS011;14000;52.056;8.510;2022-11-20T15:47:25;47.50;;;24.87;;
26277;SDS011;14000;52.056;8.510;2022-11-20T15:49:54;45.07;;;25.13;;
26277;SDS011;14000;52.056;8.510;2022-11-20T15:52:20;49.20;;;26.47;;
26277;SDS011;14000;52.056;8.510;2022-11-20T15:54:46;43.77;;;23.70;;
26277;SDS011;14000;52.056;8.510;2022-11-20T15:57:12;41.30;;;22.07;;
26277;SDS011;14000;52.056;8.510;2022-11-20T15:59:38;40.47;;;21.23;;
26277;SDS011;14000;52.056;8.510;2022-11-20T16:02:10;41.40;;;21.60;;
26277;SDS011;14000;52.056;8.510;2022-11-20T16:04:36;40.77;;;22.20;;
26277;SDS011;14000;52.056;8.510;2022-11-20T16:07:02;42.60;;;22.77;;
26277;SDS011;14000;52.056;8.510;2022-11-20T16:09:28;42.60;;;21.47;;
26277;SDS011;14000;52.056;8.510;2022-11-20T16:11:53;40.07;;;21.73;;
26277;SDS011;14000;52.056;8.510;2022-11-20T16:14:19;47.37;;;23.70;;
26277;SDS011;14000;52.056;8.510;2022-11-20T16:17:03;46.20;;;24.03;;
26277;SDS011;14000;52.056;8.510;2022-11-20T16:19:28;47.03;;;26.23;;
26277;SDS011;14000;52.056;8.510;2022-11-20T16:21:54;52.07;;;26.00;;
26277;SDS011;14000;52.056;8.510;2022-11-20T16:24:20;43.60;;;23.47;;
26277;SDS011;14000;52.056;8.510;2022-11-20T16:26:45;43.57;;;23.63;;
26277;SDS011;14000;52.056;8.510;2022-11-20T16:29:11;42.63;;;23.33;;
26277;SDS011;14000;52.056;8.510;2022-11-20T16:31:37;47.30;;;24.87;;
26277;SDS011;14000;52.056;8.510;2022-11-20T16:34:03;42.53;;;22.30;;
26277;SDS011;14000;52.056;8.510;2022-11-20T16:36:31;39.80;;;21.57;;
26277;SDS011;14000;52.056;8.510;2022-11-20T16:38:58;42.20;;;20.40;;
26277;SDS011;14000;52.056;8.510;2022-11-20T16:41:25;38.17;;;19.63;;
26277;SDS011;14000;52.056;8.510;2022-11-20T16:43:53;44.47;;;22.97;;
26277;SDS011;14000;52.056;8.510;2022-11-20T16:46:27;49.30;;;26.77;;
26277;SDS011;14000;52.056;8.510;2022-11-20T16:48:56;46.03;;;24.07;;
26277;SDS011;14000;52.056;8.510;2022-11-20T16:51:22;44.40;;;23.60;;
26277;SDS011;14000;52.056;8.510;2022-11-20T16:53:49;49.80;;;23.57;;
26277;SDS011;14000;52.056;8.510;2022-11-20T16:56:16;41.63;;;22.03;;
26277;SDS011;14000;52.056;8.510;2022-11-20T16:58:43;47.27;;;23.47;;
26277;SDS011;14000;52.056;8.510;2022-11-20T17:01:11;40.83;;;22.90;;
26277;SDS011;14000;52.056;8.510;2022-11-20T17:03:38;46.10;;;23.40;;
26277;SDS011;14000;52.056;8.510;2022-11-20T17:06:12;42.53;;;23.37;;
26277;SDS011;14000;52.056;8.510;2022-11-20T17:08:39;41.33;;;23.60;;
26277;SDS011;14000;52.056;8.510;2022-11-20T17:11:08;44.17;;;23.33;;
26277;SDS011;14000;52.056;8.510;2022-11-20T17:13:36;40.90;;;23.00;;
26277;SDS011;14000;52.056;8.510;2022-11-20T17:16:02;45.73;;;23.70;;
26277;SDS011;14000;52.056;8.510;2022-11-20T17:18:30;47.60;;;24.33;;
26277;SDS011;14000;52.056;8.510;2022-11-20T17:20:56;44.23;;;22.63;;
26277;SDS011;14000;52.056;8.510;2022-11-20T17:23:22;44.97;;;24.13;;
26277;SDS011;14000;52.056;8.510;2022-11-20T17:25:47;49.70;;;24.43;;
26277;SDS011;14000;52.056;8.510;2022-11-20T17:28:13;47.17;;;24.70;;
26277;SDS011;14000;52.056;8.510;2022-11-20T17:30:42;44.53;;;23.50;;
26277;SDS011;14000;52.056;8.510;2022-11-20T17:33:07;47.83;;;24.77;;
26277;SDS011;14000;52.056;8.510;2022-11-20T17:35:34;44.30;;;24.07;;
26277;SDS011;14000;52.056;8.510;2022-11-20T17:38:00;42.53;;;22.27;;
26277;SDS011;14000;52.056;8.510;2022-11-20T17:40:26;41.60;;;22.80;;
26277;SDS011;14000;52.056;8.510;2022-11-20T17:42:51;47.47;;;24.13;;
26277;SDS011;14000;52.056;8.510;2022-11-20T17:45:17;52.50;;;25.93;;
26277;SDS011;14000;52.056;8.510;2022-11-20T17:47:43;52.73;;;25.00;;
26277;SDS011;14000;52.056;8.510;2022-11-20T17:50:10;45.50;;;23.60;;
26277;SDS011;14000;52.056;8.510;2022-11-20T17:52:36;46.93;;;23.53;;
26277;SDS011;14000;52.056;8.510;2022-11-20T17:55:01;44.10;;;23.10;;
26277;SDS011;14000;52.056;8.510;2022-11-20T17:57:27;42.93;;;22.83;;
26277;SDS011;14000;52.056;8.510;2022-11-20T18:00:11;44.50;;;22.27;;
26277;SDS011;14000;52.056;8.510;2022-11-20T18:02:37;40.73;;;21.67;;